Time;durP1;ratioP1;P1;durP2;ratioP2;P2;SDS_P1;SDS_P2;PMS_P1;PMS_P2;Temp;Humidity;BMP_temperature;BMP_pressure;BME280_temperature;BME280_humidity;BME280_pressure;Samples;Min_cycle;Max_cycle;Signal;HPM_P1;HPM_P2
2023/06/27 00:00:13;;;;;;;0.93;0.80;;;;;;;30.73;26.76;100717.56;4991907;28;20420;-69
2023/06/27 00:02:46;;;;;;;1.40;0.80;;;;;;;30.83;26.65;100716.97;5002777;28;20053;-69
2023/06/27 00:05:17;;;;;;;1.13;0.70;;;;;;;30.96;27.04;100719.84;4986833;28;20042;-69
2023/06/27 00:07:47;;;;;;;1.02;0.80;;;;;;;31.10;26.83;100711.88;4982938;28;20413;-68
2023/06/27 00:10:16;;;;;;;1.98;0.70;;;;;;;31.24;26.62;100712.91;4994581;28;20047;-67
2023/06/27 00:12:45;;;;;;;5.53;0.90;;;;;;;31.32;26.51;100705.31;4993766;28;20484;-68
2023/06/27 00:15:14;;;;;;;1.55;0.75;;;;;;;31.40;26.66;100702.19;4987698;28;20050;-69
2023/06/27 00:17:44;;;;;;;1.50;0.80;;;;;;;31.49;25.41;100694.50;4992046;28;20054;-68
2023/06/27 00:20:14;;;;;;;2.80;0.85;;;;;;;31.52;25.92;100691.69;4989034;28;20065;-69
2023/06/27 00:22:42;;;;;;;0.93;0.73;;;;;;;31.57;26.15;100693.22;4989516;28;20053;-69
2023/06/27 00:25:11;;;;;;;2.58;0.77;;;;;;;31.59;26.77;100696.66;4982052;28;20069;-67
2023/06/27 00:27:43;;;;;;;1.02;0.77;;;;;;;31.51;27.38;100695.28;4985919;28;20053;-69
2023/06/27 00:30:13;;;;;;;0.70;0.60;;;;;;;31.45;25.88;100693.00;4987321;28;20051;-68
2023/06/27 00:32:44;;;;;;;1.33;0.73;;;;;;;31.37;25.80;100681.00;4986490;28;20050;-68
2023/06/27 00:35:19;;;;;;;2.30;0.70;;;;;;;31.35;27.75;100689.09;4986362;28;20046;-69
2023/06/27 00:37:48;;;;;;;1.83;0.95;;;;;;;31.33;27.10;100679.44;4990649;28;20551;-69
2023/06/27 00:40:17;;;;;;;3.78;1.30;;;;;;;31.31;28.82;100684.88;4990115;28;20050;-67
2023/06/27 00:42:46;;;;;;;1.17;0.70;;;;;;;31.25;27.83;100682.56;4992053;28;20101;-67
2023/06/27 00:45:16;;;;;;;1.08;0.60;;;;;;;31.22;26.70;100685.41;4990936;28;20050;-67
2023/06/27 00:47:47;;;;;;;2.00;0.70;;;;;;;31.16;26.04;100677.75;4986813;28;20054;-67
2023/06/27 00:50:16;;;;;;;1.87;0.70;;;;;;;31.11;26.11;100672.69;4992500;28;20129;-67
2023/06/27 00:52:47;;;;;;;1.00;0.70;;;;;;;31.04;26.37;100685.53;4984993;28;20054;-68
2023/06/27 00:55:17;;;;;;;0.77;0.68;;;;;;;30.92;26.50;100675.53;4987105;28;20046;-69
2023/06/27 00:57:47;;;;;;;0.70;0.50;;;;;;;30.86;26.66;100681.25;4992150;28;20043;-66
2023/06/27 01:00:17;;;;;;;0.90;0.50;;;;;;;30.81;26.25;100680.59;4989840;28;20140;-68
2023/06/27 01:02:48;;;;;;;0.70;0.60;;;;;;;30.73;27.18;100680.16;4990304;28;20104;-70
2023/06/27 01:05:19;;;;;;;0.75;0.57;;;;;;;30.62;26.76;100673.59;4990310;28;20046;-67
2023/06/27 01:07:57;;;;;;;2.42;0.70;;;;;;;30.56;26.68;100673.09;4992774;28;20407;-68
2023/06/27 01:10:32;;;;;;;1.30;0.68;;;;;;;30.43;27.01;100671.09;4989394;28;20050;-72
2023/06/27 01:13:09;;;;;;;1.05;0.50;;;;;;;30.36;27.20;100671.53;4990090;28;20058;-68
2023/06/27 01:15:39;;;;;;;3.33;0.43;;;;;;;30.33;28.17;100675.22;4989826;28;20129;-68
2023/06/27 01:18:13;;;;;;;3.90;0.60;;;;;;;30.31;27.99;100660.25;4988060;28;20540;-66
2023/06/27 01:20:43;;;;;;;1.80;0.80;;;;;;;30.29;26.50;100664.81;4991330;28;20082;-68
2023/06/27 01:23:18;;;;;;;0.75;0.60;;;;;;;30.18;28.37;100660.00;4988361;28;20519;-69
2023/06/27 01:25:51;;;;;;;1.10;0.60;;;;;;;30.14;27.40;100661.09;4984060;28;20121;-68
2023/06/27 01:28:20;;;;;;;2.00;0.40;;;;;;;30.00;26.56;100652.03;4994194;28;20259;-68
2023/06/27 01:30:48;;;;;;;1.38;0.70;;;;;;;30.01;26.58;100658.25;4981354;28;20518;-68
2023/06/27 01:33:23;;;;;;;1.55;0.60;;;;;;;29.99;26.78;100658.31;4992125;28;20424;-70
2023/06/27 01:35:58;;;;;;;2.25;0.60;;;;;;;29.94;26.77;100657.72;4989646;28;20044;-67
2023/06/27 01:38:34;;;;;;;0.68;0.68;;;;;;;29.91;27.12;100654.34;4988270;28;20063;-69
2023/06/27 01:41:07;;;;;;;1.45;0.50;;;;;;;29.80;27.01;100650.44;4989179;28;20066;-69
2023/06/27 01:43:38;;;;;;;2.00;0.52;;;;;;;29.76;26.59;100651.53;4991813;28;20046;-68
2023/06/27 01:46:07;;;;;;;1.10;0.73;;;;;;;29.64;25.23;100652.13;4991224;28;20531;-69
2023/06/27 01:48:38;;;;;;;1.95;0.50;;;;;;;29.53;26.63;100647.38;4991497;28;20600;-68
2023/06/27 01:51:09;;;;;;;0.60;0.30;;;;;;;29.45;27.08;100655.72;4996273;28;20557;-68
2023/06/27 01:53:38;;;;;;;0.77;0.63;;;;;;;29.37;26.30;100660.59;4993761;28;20046;-70
2023/06/27 01:56:09;;;;;;;0.77;0.50;;;;;;;29.33;25.84;100663.50;4992724;28;20519;-68
2023/06/27 01:58:39;;;;;;;1.95;0.60;;;;;;;29.27;27.64;100658.47;4989183;28;20463;-68
2023/06/27 02:01:09;;;;;;;0.70;0.60;;;;;;;29.19;27.33;100658.88;4989013;28;20050;-67
2023/06/27 02:03:38;;;;;;;1.73;0.50;;;;;;;29.14;27.16;100668.91;4999347;28;20113;-68
2023/06/27 02:06:07;;;;;;;1.77;0.50;;;;;;;29.03;27.32;100669.38;5001933;28;20056;-72
2023/06/27 02:08:36;;;;;;;0.60;0.40;;;;;;;28.89;27.76;100675.38;4988255;28;20042;-68
2023/06/27 02:11:05;;;;;;;0.38;0.32;;;;;;;28.77;27.84;100671.50;4984964;28;20061;-70
2023/06/27 02:13:39;;;;;;;0.95;0.43;;;;;;;28.67;28.51;100675.53;4985840;28;20567;-67
2023/06/27 02:16:14;;;;;;;1.23;0.50;;;;;;;28.53;28.30;100681.50;4989240;28;20057;-69
2023/06/27 02:18:43;;;;;;;0.93;0.50;;;;;;;28.42;28.60;100681.09;4990154;28;20038;-69
2023/06/27 02:21:12;;;;;;;1.02;0.45;;;;;;;28.34;28.36;100688.59;4981825;28;20049;-67
2023/06/27 02:23:41;;;;;;;0.55;0.35;;;;;;;28.23;29.16;100681.09;4979783;28;20047;-68
2023/06/27 02:26:10;;;;;;;1.95;0.50;;;;;;;28.15;30.14;100686.75;4988982;28;20062;-70
2023/06/27 02:28:40;;;;;;;0.40;0.30;;;;;;;28.04;30.41;100689.03;4987280;28;20500;-68
2023/06/27 02:31:09;;;;;;;0.60;0.30;;;;;;;27.96;30.19;100696.47;4981756;28;20042;-68
2023/06/27 02:33:38;;;;;;;1.10;0.50;;;;;;;27.83;29.75;100689.94;4987136;28;20050;-68
2023/06/27 02:36:08;;;;;;;1.15;0.57;;;;;;;27.71;30.51;100694.84;4985199;28;20573;-69
2023/06/27 02:38:36;;;;;;;0.77;0.40;;;;;;;27.54;29.43;100686.75;4988836;28;20514;-70
2023/06/27 02:41:05;;;;;;;2.05;0.68;;;;;;;27.41;29.83;100696.16;4985937;28;20042;-68
2023/06/27 02:43:34;;;;;;;0.80;0.60;;;;;;;27.34;30.41;100690.22;4990077;28;20052;-71
2023/06/27 02:46:04;;;;;;;0.60;0.40;;;;;;;27.24;29.10;100699.50;4986158;28;20582;-67
2023/06/27 02:48:33;;;;;;;2.22;0.63;;;;;;;27.18;29.39;100697.91;4988382;28;20058;-68
2023/06/27 02:51:02;;;;;;;2.15;0.52;;;;;;;27.02;30.19;100688.84;4974027;28;20043;-68
2023/06/27 02:53:31;;;;;;;1.10;0.60;;;;;;;26.82;27.62;100687.81;4983896;28;20050;-68
2023/06/27 02:56:02;;;;;;;1.63;0.55;;;;;;;26.75;27.66;100696.94;4988332;28;20085;-68
2023/06/27 02:58:31;;;;;;;0.63;0.50;;;;;;;26.57;27.32;100690.56;4986739;28;20108;-68
2023/06/27 03:01:01;;;;;;;1.00;0.60;;;;;;;26.47;28.40;100705.06;4991583;28;20060;-66
2023/06/27 03:03:32;;;;;;;0.40;0.40;;;;;;;26.37;28.34;100701.03;4996902;28;20054;-68
2023/06/27 03:06:03;;;;;;;1.30;0.70;;;;;;;26.25;29.54;100712.94;4988034;28;20046;-67
2023/06/27 03:08:32;;;;;;;0.45;0.45;;;;;;;26.10;29.16;100699.31;4992765;28;20659;-68
2023/06/27 03:11:01;;;;;;;2.45;0.63;;;;;;;25.99;30.48;100703.28;4992407;28;20042;-67
2023/06/27 03:13:30;;;;;;;0.50;0.40;;;;;;;25.89;31.31;100718.66;4993042;28;20638;-67
2023/06/27 03:16:01;;;;;;;0.75;0.50;;;;;;;25.85;32.03;100714.34;4991668;28;20042;-67
2023/06/27 03:18:32;;;;;;;1.25;0.50;;;;;;;25.78;32.77;100718.13;4990569;28;20050;-68
2023/06/27 03:21:00;;;;;;;0.40;0.30;;;;;;;25.75;32.78;100718.22;4986728;28;20132;-68
2023/06/27 03:23:29;;;;;;;2.25;0.55;;;;;;;25.67;33.49;100714.03;4990465;28;20050;-68
2023/06/27 03:25:59;;;;;;;1.02;0.57;;;;;;;25.65;33.78;100713.22;4989796;28;20108;-66
2023/06/27 03:28:27;;;;;;;0.85;0.35;;;;;;;25.63;34.16;100724.78;4980468;28;20050;-65
2023/06/27 03:30:56;;;;;;;1.38;0.40;;;;;;;25.56;34.01;100720.63;4987822;28;20038;-68
2023/06/27 03:33:25;;;;;;;1.13;0.32;;;;;;;25.47;34.34;100709.44;4983522;28;20042;-67
2023/06/27 03:35:57;;;;;;;0.43;0.30;;;;;;;25.43;34.33;100717.53;4990092;28;20528;-66
2023/06/27 03:38:26;;;;;;;2.28;0.30;;;;;;;25.38;34.75;100724.72;4985496;28;20047;-66
2023/06/27 03:40:54;;;;;;;0.40;0.30;;;;;;;25.30;35.42;100719.69;4988101;28;20501;-66
2023/06/27 03:43:32;;;;;;;0.90;0.30;;;;;;;25.26;36.15;100726.00;4984646;28;20523;-67
2023/06/27 03:46:01;;;;;;;0.52;0.40;;;;;;;25.13;35.55;100721.97;4988917;28;20047;-67
2023/06/27 03:48:30;;;;;;;1.63;0.45;;;;;;;25.01;35.80;100731.16;4984300;28;20055;-66
2023/06/27 03:51:00;;;;;;;0.93;0.30;;;;;;;24.96;36.13;100735.75;4989861;28;20439;-66
2023/06/27 03:53:29;;;;;;;0.50;0.43;;;;;;;24.90;37.27;100738.56;4987282;28;20060;-67
2023/06/27 03:55:57;;;;;;;0.60;0.40;;;;;;;24.82;36.27;100731.72;4987098;28;20046;-66
2023/06/27 03:58:26;;;;;;;1.08;0.50;;;;;;;24.77;36.59;100746.88;4992065;28;20053;-67
2023/06/27 04:00:55;;;;;;;1.42;0.40;;;;;;;24.70;37.86;100742.69;4993122;28;20061;-67
2023/06/27 04:03:25;;;;;;;0.45;0.30;;;;;;;24.63;36.94;100743.78;4992683;28;20081;-68
2023/06/27 04:05:54;;;;;;;0.73;0.20;;;;;;;24.57;37.07;100743.94;4990997;28;20124;-67
2023/06/27 04:08:24;;;;;;;1.95;0.30;;;;;;;24.48;35.79;100750.34;4988923;28;20051;-67
2023/06/27 04:10:53;;;;;;;1.30;0.38;;;;;;;24.41;36.07;100738.19;4986998;28;20054;-66
2023/06/27 04:13:28;;;;;;;0.93;0.30;;;;;;;24.32;36.25;100738.44;4988642;28;20074;-69
2023/06/27 04:15:57;;;;;;;1.25;0.35;;;;;;;24.28;35.67;100740.31;4984380;28;20053;-67
2023/06/27 04:18:26;;;;;;;0.35;0.20;;;;;;;24.16;35.44;100740.63;4987601;28;20076;-68
2023/06/27 04:20:54;;;;;;;1.58;0.32;;;;;;;24.04;35.70;100737.41;4982137;28;20097;-66
2023/06/27 04:23:25;;;;;;;2.63;0.40;;;;;;;23.89;33.73;100729.91;4981158;28;20054;-68
2023/06/27 04:26:03;;;;;;;0.20;0.20;;;;;;;23.78;34.78;100735.47;4990739;28;20055;-67
2023/06/27 04:28:35;;;;;;;0.50;0.38;;;;;;;23.63;35.16;100736.66;4991719;28;20073;-66
2023/06/27 04:31:04;;;;;;;1.30;0.30;;;;;;;23.57;35.18;100739.47;4998208;28;20053;-67
2023/06/27 04:33:32;;;;;;;0.70;0.47;;;;;;;23.46;35.63;100733.59;4987186;28;20073;-67
2023/06/27 04:36:03;;;;;;;0.40;0.13;;;;;;;23.36;36.11;100739.97;4987937;28;20061;-66
2023/06/27 04:38:38;;;;;;;0.57;0.30;;;;;;;23.29;36.45;100741.03;4990205;28;20042;-66
2023/06/27 04:41:07;;;;;;;0.40;0.28;;;;;;;23.20;36.90;100753.56;4989365;28;20124;-66
2023/06/27 04:43:36;;;;;;;0.28;0.20;;;;;;;23.08;36.29;100760.88;4991347;28;20104;-66
2023/06/27 04:46:05;;;;;;;0.45;0.30;;;;;;;22.98;36.81;100771.59;4977592;28;20054;-66
2023/06/27 04:48:34;;;;;;;1.65;0.45;;;;;;;22.91;37.53;100763.84;4982509;28;20047;-65
2023/06/27 04:51:03;;;;;;;0.77;0.40;;;;;;;22.87;38.50;100764.81;4988022;28;20068;-65
2023/06/27 04:53:33;;;;;;;1.67;0.50;;;;;;;22.78;38.31;100761.47;4986173;28;20279;-66
2023/06/27 04:56:02;;;;;;;0.45;0.30;;;;;;;22.70;38.99;100767.78;4986875;28;20050;-66
2023/06/27 04:58:31;;;;;;;2.28;0.30;;;;;;;22.61;38.80;100771.50;4990848;28;20551;-66
2023/06/27 05:01:00;;;;;;;1.20;0.40;;;;;;;22.47;39.04;100773.53;4991849;28;20565;-66
2023/06/27 05:03:29;;;;;;;0.77;0.30;;;;;;;22.37;39.94;100775.47;4992030;28;20160;-66
2023/06/27 05:05:58;;;;;;;0.20;0.20;;;;;;;22.29;40.05;100778.25;4992199;28;20056;-66
2023/06/27 05:08:26;;;;;;;1.90;0.30;;;;;;;22.22;40.15;100781.00;4988094;28;20054;-65
2023/06/27 05:10:57;;;;;;;0.60;0.20;;;;;;;22.08;39.83;100783.88;4989715;28;20090;-65
2023/06/27 05:13:32;;;;;;;0.40;0.22;;;;;;;22.01;39.51;100787.50;4992543;28;20944;-66
2023/06/27 05:16:01;;;;;;;0.38;0.25;;;;;;;21.89;39.51;100783.31;4990248;28;20050;-65
2023/06/27 05:18:30;;;;;;;1.60;0.55;;;;;;;21.81;40.12;100783.47;4981414;28;20066;-66
2023/06/27 05:20:59;;;;;;;0.60;0.40;;;;;;;21.72;40.32;100779.22;4990671;28;20042;-66
2023/06/27 05:23:28;;;;;;;0.80;0.30;;;;;;;21.67;40.42;100780.16;4981668;28;20077;-65
2023/06/27 05:25:58;;;;;;;0.50;0.22;;;;;;;21.63;40.23;100789.03;4984203;28;20152;-65
2023/06/27 05:28:27;;;;;;;0.85;0.30;;;;;;;21.63;40.45;100791.66;4990316;28;20104;-65
2023/06/27 05:30:56;;;;;;;0.40;0.20;;;;;;;21.63;40.64;100789.03;4985503;28;20048;-66
2023/06/27 05:33:25;;;;;;;1.13;0.30;;;;;;;21.61;40.45;100794.31;4985579;28;20050;-66
2023/06/27 05:35:54;;;;;;;0.40;0.25;;;;;;;21.56;40.37;100788.25;4980930;28;20519;-66
2023/06/27 05:38:23;;;;;;;0.65;0.32;;;;;;;21.50;40.51;100785.69;4990677;28;20081;-66
2023/06/27 05:40:52;;;;;;;0.98;0.28;;;;;;;21.44;40.31;100788.41;4987181;28;20054;-67
2023/06/27 05:43:22;;;;;;;1.70;0.32;;;;;;;21.40;42.50;100794.59;4989382;28;20046;-66
2023/06/27 05:45:51;;;;;;;0.43;0.20;;;;;;;21.37;41.95;100792.00;4989350;28;20141;-65
2023/06/27 05:48:20;;;;;;;1.40;0.20;;;;;;;21.33;41.50;100799.94;4989278;28;20058;-65
2023/06/27 05:50:49;;;;;;;0.28;0.20;;;;;;;21.31;41.75;100799.09;4994148;28;20058;-66
2023/06/27 05:53:18;;;;;;;0.22;0.20;;;;;;;21.29;40.98;100797.38;4988983;28;20109;-65
2023/06/27 05:55:47;;;;;;;1.98;0.30;;;;;;;21.24;40.86;100799.22;4983079;28;20046;-66
2023/06/27 05:58:16;;;;;;;1.27;0.30;;;;;;;21.14;40.94;100793.19;4987644;28;20043;-66
2023/06/27 06:00:46;;;;;;;4.70;0.77;;;;;;;21.07;41.17;100791.53;4991760;28;20057;-66
2023/06/27 06:03:16;;;;;;;0.68;0.40;;;;;;;21.04;41.41;100791.59;4989627;28;20125;-66
2023/06/27 06:05:45;;;;;;;1.48;0.35;;;;;;;21.02;42.22;100810.00;4990522;28;20083;-66
2023/06/27 06:08:14;;;;;;;0.65;0.32;;;;;;;20.94;42.02;100811.88;4986232;28;20084;-66
2023/06/27 06:10:44;;;;;;;3.05;0.38;;;;;;;20.71;47.52;100815.66;4987641;28;20049;-66
2023/06/27 06:13:13;;;;;;;0.30;0.22;;;;;;;20.54;49.03;100812.28;4988754;28;20462;-66
2023/06/27 06:15:42;;;;;;;3.53;0.25;;;;;;;20.36;51.37;100817.72;4987494;28;20074;-66
2023/06/27 06:18:13;;;;;;;2.00;0.28;;;;;;;20.12;51.98;100817.09;4986631;28;20125;-66
2023/06/27 06:20:42;;;;;;;1.48;0.40;;;;;;;20.00;51.82;100814.56;4987023;28;20112;-65
2023/06/27 06:23:11;;;;;;;0.52;0.25;;;;;;;20.00;52.62;100822.47;4985699;28;20054;-65
2023/06/27 06:25:40;;;;;;;0.57;0.22;;;;;;;19.97;53.00;100822.47;4982606;28;20051;-65
2023/06/27 06:28:08;;;;;;;0.10;0.10;;;;;;;19.82;54.57;100831.34;4989256;28;20104;-68
2023/06/27 06:30:37;;;;;;;0.40;0.20;;;;;;;19.70;55.59;100836.66;4985336;28;20404;-67
2023/06/27 06:33:06;;;;;;;0.30;0.20;;;;;;;19.58;56.38;100832.34;4986444;28;20053;-66
2023/06/27 06:35:36;;;;;;;1.13;0.32;;;;;;;19.50;56.74;100832.41;4985148;28;20451;-66
2023/06/27 06:38:05;;;;;;;0.20;0.20;;;;;;;19.38;58.30;100835.97;4981662;28;20047;-66
2023/06/27 06:40:34;;;;;;;1.15;0.32;;;;;;;19.28;57.97;100834.25;4987531;28;20082;-65
2023/06/27 06:43:03;;;;;;;0.40;0.32;;;;;;;19.24;58.50;100832.50;4982359;28;20125;-65
2023/06/27 06:45:32;;;;;;;1.08;0.52;;;;;;;19.21;58.34;100827.31;4986230;28;20050;-66
2023/06/27 06:48:00;;;;;;;2.70;0.60;;;;;;;19.11;59.12;100826.47;4995501;28;20042;-67
2023/06/27 06:50:30;;;;;;;1.30;0.30;;;;;;;19.06;59.01;100825.63;4988913;28;20046;-66
2023/06/27 06:53:01;;;;;;;2.15;0.47;;;;;;;19.04;58.90;100820.38;4987903;28;20081;-66
2023/06/27 06:55:30;;;;;;;1.67;0.45;;;;;;;18.98;59.45;100817.78;4987710;28;20106;-66
2023/06/27 06:57:58;;;;;;;1.75;0.47;;;;;;;18.90;60.00;100813.44;5001446;28;20118;-66
2023/06/27 07:00:27;;;;;;;1.30;0.30;;;;;;;18.93;59.86;100823.94;4986394;28;20126;-66
2023/06/27 07:02:57;;;;;;;0.63;0.30;;;;;;;18.84;61.15;100827.44;4987422;28;20082;-66
2023/06/27 07:05:25;;;;;;;0.63;0.28;;;;;;;18.71;61.42;100825.72;4987697;28;20050;-67
2023/06/27 07:07:54;;;;;;;0.85;0.43;;;;;;;18.58;62.62;100822.25;4996736;28;20492;-67
2023/06/27 07:10:24;;;;;;;0.40;0.30;;;;;;;18.48;62.24;100829.25;4988755;28;20121;-66
2023/06/27 07:12:53;;;;;;;0.57;0.22;;;;;;;18.39;63.18;100830.16;4989837;28;20070;-65
2023/06/27 07:15:22;;;;;;;0.30;0.30;;;;;;;18.25;63.42;100812.69;4986610;28;20046;-65
2023/06/27 07:17:50;;;;;;;1.27;0.40;;;;;;;18.28;64.09;100825.78;4989428;28;20053;-66
2023/06/27 07:20:20;;;;;;;1.02;0.40;;;;;;;18.17;64.39;100818.81;4989724;28;20475;-66
2023/06/27 07:22:48;;;;;;;0.45;0.30;;;;;;;18.08;64.77;100813.59;4983772;28;20069;-66
2023/06/27 07:25:17;;;;;;;0.93;0.32;;;;;;;18.01;65.10;100817.09;4991300;28;20050;-66
2023/06/27 07:27:47;;;;;;;2.00;0.30;;;;;;;17.89;66.21;100814.44;4990571;28;20068;-65
2023/06/27 07:30:16;;;;;;;1.00;0.50;;;;;;;17.80;66.87;100833.63;4993206;28;20058;-64
2023/06/27 07:32:45;;;;;;;2.67;0.40;;;;;;;17.71;67.46;100824.03;4993060;28;20118;-67
2023/06/27 07:35:14;;;;;;;0.80;0.50;;;;;;;17.65;66.97;100826.63;4983604;28;20113;-66
2023/06/27 07:37:43;;;;;;;0.40;0.40;;;;;;;17.66;67.68;100823.16;4989324;28;20052;-66
2023/06/27 07:40:12;;;;;;;0.57;0.47;;;;;;;17.64;67.57;100827.50;4990261;28;20082;-66
2023/06/27 07:42:41;;;;;;;1.05;0.32;;;;;;;17.53;69.42;100824.84;4988946;28;20095;-66
2023/06/27 07:45:14;;;;;;;0.77;0.50;;;;;;;17.43;70.07;100838.78;4993530;28;20485;-65
2023/06/27 07:47:42;;;;;;;1.50;0.50;;;;;;;17.40;69.54;100832.66;4991380;28;20046;-65
2023/06/27 07:50:12;;;;;;;0.75;0.30;;;;;;;17.40;70.26;100843.13;4990215;28;20073;-65
2023/06/27 07:52:42;;;;;;;0.60;0.40;;;;;;;17.34;69.89;100833.50;4991238;28;20043;-66
2023/06/27 07:55:11;;;;;;;0.40;0.40;;;;;;;17.32;70.00;100836.16;4990075;28;20050;-66
2023/06/27 07:57:40;;;;;;;0.32;0.32;;;;;;;17.24;70.36;100837.84;4993953;28;20051;-66
2023/06/27 08:00:12;;;;;;;0.80;0.40;;;;;;;17.20;71.07;100836.09;4986131;28;20047;-66
2023/06/27 08:02:41;;;;;;;0.73;0.30;;;;;;;17.19;70.69;100831.72;4988234;28;20526;-65
2023/06/27 08:05:10;;;;;;;0.75;0.50;;;;;;;17.17;70.91;100836.94;4994626;28;20043;-64
2023/06/27 08:07:39;;;;;;;0.45;0.35;;;;;;;17.14;70.50;100833.47;4990840;28;20045;-66
2023/06/27 08:10:08;;;;;;;0.30;0.30;;;;;;;17.11;70.08;100828.19;4990911;28;20461;-66
2023/06/27 08:12:37;;;;;;;0.70;0.38;;;;;;;17.12;70.16;100832.59;4988035;28;20561;-65
2023/06/27 08:15:06;;;;;;;0.57;0.30;;;;;;;17.11;70.21;100830.81;4969110;28;20123;-65
2023/06/27 08:17:37;;;;;;;0.60;0.40;;;;;;;17.10;70.20;100824.72;4977088;28;20620;-64
2023/06/27 08:20:07;;;;;;;0.65;0.38;;;;;;;17.13;70.69;100836.94;4972434;28;20046;-66
2023/06/27 08:22:36;;;;;;;0.32;0.30;;;;;;;17.05;70.42;100826.44;4970916;28;20539;-65
2023/06/27 08:25:06;;;;;;;0.60;0.50;;;;;;;16.95;71.10;100836.00;4971360;28;20052;-64
2023/06/27 08:27:34;;;;;;;0.52;0.43;;;;;;;16.90;71.86;100835.09;4965064;28;20163;-66
2023/06/27 08:30:03;;;;;;;1.15;0.32;;;;;;;16.86;71.54;100835.97;4972058;28;20047;-66
2023/06/27 08:32:32;;;;;;;1.27;0.45;;;;;;;16.82;71.49;100831.56;4969205;28;20134;-65
2023/06/27 08:35:05;;;;;;;0.50;0.40;;;;;;;16.83;72.25;100849.00;4973091;28;20054;-65
2023/06/27 08:37:33;;;;;;;0.82;0.40;;;;;;;16.79;72.68;100844.63;4977864;28;20050;-65
2023/06/27 08:40:03;;;;;;;0.30;0.20;;;;;;;16.74;72.47;100841.06;4974004;28;20493;-64
2023/06/27 08:42:32;;;;;;;0.50;0.20;;;;;;;16.67;73.13;100849.75;4973891;28;20058;-64
2023/06/27 08:45:00;;;;;;;0.77;0.40;;;;;;;16.64;73.07;100850.59;4973740;28;20043;-65
2023/06/27 08:47:33;;;;;;;0.32;0.30;;;;;;;16.65;72.95;100848.84;4971708;28;20047;-65
2023/06/27 08:50:08;;;;;;;0.57;0.57;;;;;;;16.63;72.69;100842.75;4974105;28;20074;-65
2023/06/27 08:52:39;;;;;;;0.50;0.30;;;;;;;16.65;73.08;100841.03;4982824;28;20054;-65
2023/06/27 08:55:14;;;;;;;0.40;0.30;;;;;;;16.64;72.35;100844.50;4980843;28;20043;-64
2023/06/27 08:57:45;;;;;;;0.73;0.30;;;;;;;16.63;72.46;100848.88;4972533;28;20051;-66
2023/06/27 09:00:19;;;;;;;0.30;0.30;;;;;;;16.60;72.61;100843.59;4959709;28;20038;-65
2023/06/27 09:02:49;;;;;;;0.60;0.50;;;;;;;16.52;72.54;100837.47;4968835;28;20113;-65
2023/06/27 09:05:20;;;;;;;0.88;0.40;;;;;;;16.47;72.90;100847.91;4968614;28;20069;-65
2023/06/27 09:07:50;;;;;;;1.98;0.50;;;;;;;16.43;73.35;100848.72;4961750;28;20501;-65
2023/06/27 09:10:19;;;;;;;0.43;0.35;;;;;;;16.39;74.07;100844.34;4971423;28;20058;-66
2023/06/27 09:12:49;;;;;;;1.60;0.47;;;;;;;16.37;73.37;100847.81;4979341;28;20141;-65
2023/06/27 09:15:18;;;;;;;1.08;0.50;;;;;;;16.31;74.16;100840.81;4998453;28;20054;-66
2023/06/27 09:17:47;;;;;;;0.60;0.35;;;;;;;16.26;74.63;100843.41;4983854;28;20053;-65
2023/06/27 09:20:20;;;;;;;0.85;0.32;;;;;;;16.14;74.72;100838.06;4996651;28;20053;-66
2023/06/27 09:22:50;;;;;;;1.33;0.40;;;;;;;16.09;75.88;100837.16;4989070;28;20105;-65
2023/06/27 09:25:21;;;;;;;0.75;0.40;;;;;;;16.01;76.85;100841.41;4995228;28;20451;-65
2023/06/27 09:27:50;;;;;;;2.25;0.50;;;;;;;15.89;78.52;100847.41;4988216;28;20065;-65
2023/06/27 09:30:18;;;;;;;1.33;0.20;;;;;;;15.79;78.75;100850.81;4994412;28;20436;-65
2023/06/27 09:32:55;;;;;;;1.75;0.40;;;;;;;15.75;78.66;100856.84;4983683;28;20046;-65
2023/06/27 09:35:26;;;;;;;0.50;0.50;;;;;;;15.74;78.45;100852.50;4993636;28;20084;-65
2023/06/27 09:38:05;;;;;;;0.40;0.40;;;;;;;15.74;78.30;100844.69;4990169;28;20046;-66
2023/06/27 09:40:37;;;;;;;1.02;0.40;;;;;;;15.77;78.49;100847.31;4993185;28;20056;-66
2023/06/27 09:43:07;;;;;;;0.30;0.22;;;;;;;15.76;78.06;100845.53;4986436;28;20074;-65
2023/06/27 09:45:36;;;;;;;1.08;0.45;;;;;;;15.73;77.77;100841.16;4989146;28;20050;-66
2023/06/27 09:48:09;;;;;;;1.17;0.52;;;;;;;15.64;78.72;100841.91;4981267;28;20042;-66
2023/06/27 09:50:40;;;;;;;5.32;0.50;;;;;;;15.58;79.15;100852.31;4987416;28;20157;-66
2023/06/27 09:53:10;;;;;;;1.13;0.35;;;;;;;15.48;78.71;100838.31;4983731;28;20105;-65
2023/06/27 09:55:39;;;;;;;0.75;0.40;;;;;;;15.50;79.41;100843.50;4989693;28;20046;-66
2023/06/27 09:58:07;;;;;;;0.57;0.35;;;;;;;15.44;80.46;100851.28;4990126;28;20054;-66
2023/06/27 10:00:39;;;;;;;2.15;0.28;;;;;;;15.36;81.08;100850.31;4984448;28;20049;-66
2023/06/27 10:03:11;;;;;;;0.57;0.40;;;;;;;15.24;81.46;100851.91;4982106;28;20504;-66
2023/06/27 10:05:41;;;;;;;0.80;0.38;;;;;;;15.21;81.38;100851.91;4985328;28;20291;-65
2023/06/27 10:08:11;;;;;;;0.85;0.43;;;;;;;15.20;81.24;100850.13;4986642;28;20057;-65
2023/06/27 10:10:40;;;;;;;0.25;0.20;;;;;;;15.16;81.21;100852.69;4985839;28;20105;-65
2023/06/27 10:13:09;;;;;;;0.60;0.40;;;;;;;15.09;82.29;100864.75;4990216;28;20482;-66
2023/06/27 10:15:38;;;;;;;0.85;0.60;;;;;;;15.03;82.85;100857.75;4988975;28;20555;-66
2023/06/27 10:18:09;;;;;;;0.80;0.43;;;;;;;14.95;83.85;100859.38;4989420;28;20050;-66
2023/06/27 10:20:39;;;;;;;1.52;0.30;;;;;;;14.94;83.42;100856.75;4995774;28;20057;-66
2023/06/27 10:23:10;;;;;;;0.95;0.60;;;;;;;14.93;84.37;100860.19;4988324;28;20051;-65
2023/06/27 10:25:40;;;;;;;2.33;0.52;;;;;;;14.89;85.05;100867.13;4987765;28;20068;-64
2023/06/27 10:28:10;;;;;;;0.90;0.35;;;;;;;14.81;85.33;100874.81;4986258;28;20054;-65
2023/06/27 10:30:46;;;;;;;0.52;0.40;;;;;;;14.78;86.84;100877.38;4984655;28;20507;-66
2023/06/27 10:33:27;;;;;;;0.73;0.47;;;;;;;14.74;86.45;100878.19;4982549;28;20074;-65
2023/06/27 10:36:01;;;;;;;0.55;0.32;;;;;;;14.72;86.84;100884.22;4981639;28;20047;-65
2023/06/27 10:38:37;;;;;;;0.50;0.35;;;;;;;14.73;86.54;100888.56;4989948;28;20047;-65
2023/06/27 10:41:13;;;;;;;2.28;0.43;;;;;;;14.76;85.38;100883.44;4992630;28;20209;-65
2023/06/27 10:43:49;;;;;;;0.30;0.30;;;;;;;14.79;84.95;100879.13;4986177;28;20046;-66
2023/06/27 10:46:20;;;;;;;0.65;0.45;;;;;;;14.81;84.87;100885.22;4990698;28;20061;-65
2023/06/27 10:48:53;;;;;;;0.70;0.45;;;;;;;14.80;84.62;100885.22;4976193;28;20053;-65
2023/06/27 10:51:23;;;;;;;0.30;0.22;;;;;;;14.80;84.31;100888.69;4989965;28;20086;-65
2023/06/27 10:54:15;;;;;;;0.50;0.40;;;;;;;14.77;85.19;100886.03;4999868;28;20052;-65
2023/06/27 10:56:45;;;;;;;0.73;0.40;;;;;;;14.74;83.98;100891.22;4976119;28;20057;-65
2023/06/27 10:59:16;;;;;;;0.77;0.50;;;;;;;14.67;85.45;100884.16;5006330;28;20492;-65
2023/06/27 11:01:51;;;;;;;1.17;0.50;;;;;;;14.62;85.96;100888.44;4992645;28;20046;-65
2023/06/27 11:04:21;;;;;;;0.90;0.65;;;;;;;14.61;85.20;100889.28;4989868;28;20046;-65
2023/06/27 11:06:50;;;;;;;3.03;0.52;;;;;;;14.61;85.10;100890.16;4973845;28;20054;-65
2023/06/27 11:09:21;;;;;;;0.43;0.35;;;;;;;14.60;85.31;100896.22;4988611;28;20055;-65
2023/06/27 11:11:56;;;;;;;0.85;0.30;;;;;;;14.58;86.34;100890.09;4992389;28;20046;-65
2023/06/27 11:14:42;;;;;;;0.70;0.43;;;;;;;14.54;85.92;100892.59;5001370;28;20055;-65
2023/06/27 11:17:18;;;;;;;1.55;0.50;;;;;;;14.52;86.10;100889.09;4990161;28;20050;-65
2023/06/27 11:19:47;;;;;;;0.40;0.35;;;;;;;14.53;85.98;100888.25;4997454;28;20041;-65
2023/06/27 11:22:16;;;;;;;0.60;0.40;;;;;;;14.52;85.34;100889.97;5000426;28;20050;-65
2023/06/27 11:24:47;;;;;;;1.00;0.55;;;;;;;14.51;85.26;100892.56;4990293;28;20567;-66
2023/06/27 11:27:16;;;;;;;0.57;0.50;;;;;;;14.51;85.83;100895.16;4991332;28;20657;-66
2023/06/27 11:29:45;;;;;;;0.75;0.52;;;;;;;14.49;85.70;100886.47;4986065;28;20042;-66
2023/06/27 11:32:13;;;;;;;1.25;0.60;;;;;;;14.48;85.36;100896.00;4992047;28;20047;-65
2023/06/27 11:34:43;;;;;;;0.90;0.50;;;;;;;14.48;85.89;100895.09;4991606;28;20412;-66
2023/06/27 11:37:13;;;;;;;1.55;0.45;;;;;;;14.46;85.89;100901.19;4992098;28;20595;-66